Time;durP1;ratioP1;P1;durP2;ratioP2;P2;SDS_P1;SDS_P2;PMS_P1;PMS_P2;Temp;Humidity;BMP_temperature;BMP_pressure;BME280_temperature;BME280_humidity;BME280_pressure;Samples;Min_cycle;Max_cycle;Signal;HPM_P1;HPM_P2
2024/03/15 00:00:46;;;;;;;150.30;62.00;;;;;;;0.92;83.26;97167.50;107445;1238;96593;-91
2024/03/15 00:03:33;;;;;;;136.40;64.40;;;;;;;0.91;83.36;97164.36;107302;1238;100743;-91
2024/03/15 00:05:59;;;;;;;117.60;54.40;;;;;;;0.89;83.31;97168.14;107423;1249;97804;-91
2024/03/15 00:08:26;;;;;;;107.50;52.90;;;;;;;0.86;83.40;97161.04;107384;1242;96656;-91
2024/03/15 00:10:53;;;;;;;104.30;49.30;;;;;;;0.85;83.49;97163.56;107385;1242;97172;-87
2024/03/15 00:13:20;;;;;;;107.40;50.50;;;;;;;0.84;83.58;97161.93;107411;1242;97479;-88
2024/03/15 00:15:46;;;;;;;97.50;46.80;;;;;;;0.83;83.54;97157.61;107412;1241;97017;-80
2024/03/15 00:18:12;;;;;;;82.40;44.20;;;;;;;0.82;83.52;97155.92;107521;1241;96504;-80
2024/03/15 00:20:39;;;;;;;96.00;44.10;;;;;;;0.80;83.55;97147.99;107504;1238;96880;-80
2024/03/15 00:23:07;;;;;;;90.40;43.50;;;;;;;0.79;83.65;97150.02;107533;1248;97539;-80
2024/03/15 00:25:33;;;;;;;98.70;47.30;;;;;;;0.77;83.56;97144.98;107523;1244;96903;-80
2024/03/15 00:28:01;;;;;;;92.80;44.10;;;;;;;0.75;83.60;97140.34;107561;1239;97521;-80
2024/03/15 00:30:28;;;;;;;85.00;41.70;;;;;;;0.72;83.72;97138.73;107380;1242;97834;-80
2024/03/15 00:32:54;;;;;;;79.20;42.80;;;;;;;0.70;83.67;97132.55;107493;1241;97841;-80
2024/03/15 00:35:20;;;;;;;86.60;42.60;;;;;;;0.68;83.64;97133.77;107522;1248;96657;-80
2024/03/15 00:37:47;;;;;;;95.90;47.90;;;;;;;0.67;83.72;97132.54;107520;1241;96565;-80
2024/03/15 00:40:13;;;;;;;102.60;49.40;;;;;;;0.66;83.63;97130.16;107548;1251;96648;-80
2024/03/15 00:42:40;;;;;;;87.60;44.50;;;;;;;0.60;83.59;97122.73;107496;1251;97153;-80
2024/03/15 00:45:07;;;;;;;76.90;41.50;;;;;;;0.59;83.56;97126.08;107521;1241;97892;-80
2024/03/15 00:47:33;;;;;;;76.50;40.10;;;;;;;0.56;83.60;97124.06;107591;1242;97727;-80
2024/03/15 00:49:59;;;;;;;63.10;38.60;;;;;;;0.53;83.56;97125.20;107539;1246;97822;-80
2024/03/15 00:52:25;;;;;;;67.90;39.00;;;;;;;0.50;83.49;97127.70;107480;1242;97477;-80
2024/03/15 00:54:52;;;;;;;70.20;39.30;;;;;;;0.48;83.55;97126.46;107544;1242;97695;-80
2024/03/15 00:57:18;;;;;;;85.10;42.10;;;;;;;0.46;83.59;97129.17;107532;1240;97112;-80
2024/03/15 00:59:44;;;;;;;81.40;43.10;;;;;;;0.43;83.51;97130.20;107519;1242;96574;-80
2024/03/15 01:02:11;;;;;;;83.40;44.00;;;;;;;0.39;83.59;97128.28;107494;1244;96587;-80
2024/03/15 01:04:37;;;;;;;88.70;41.70;;;;;;;0.37;83.59;97127.23;107538;1241;96578;-80
2024/03/15 01:07:05;;;;;;;76.80;40.60;;;;;;;0.32;83.58;97125.59;107492;1241;97042;-82
2024/03/15 01:09:31;;;;;;;77.50;39.20;;;;;;;0.29;83.65;97122.39;107477;1249;102082;-87
2024/03/15 01:11:57;;;;;;;70.40;38.90;;;;;;;0.24;83.63;97128.16;107438;1238;97803;-86
2024/03/15 01:14:24;;;;;;;81.20;43.60;;;;;;;0.19;83.72;97122.69;107546;1244;96563;-87
2024/03/15 01:16:50;;;;;;;79.00;44.50;;;;;;;0.21;83.94;97125.27;107472;1239;96642;-92
2024/03/15 01:19:18;;;;;;;84.80;46.10;;;;;;;0.25;84.05;97123.63;107399;1241;101105;-92
2024/03/15 01:21:44;;;;;;;138.30;45.00;;;;;;;0.28;84.06;97121.95;107425;1246;96769;-91
2024/03/15 01:24:12;;;;;;;121.10;44.10;;;;;;;0.30;84.00;97119.23;107395;1241;97115;-92
2024/03/15 01:26:39;;;;;;;131.10;43.20;;;;;;;0.29;84.04;97120.45;107553;1242;97804;-80
2024/03/15 01:29:05;;;;;;;121.20;44.50;;;;;;;0.27;84.04;97120.42;107468;1241;97904;-80
2024/03/15 01:31:31;;;;;;;116.00;45.60;;;;;;;0.23;83.99;97120.17;107571;1238;97506;-80
2024/03/15 01:33:58;;;;;;;106.70;45.20;;;;;;;0.20;84.02;97119.92;107485;1241;99289;-79
2024/03/15 01:36:24;;;;;;;91.10;42.80;;;;;;;0.18;84.16;97116.08;107502;1241;97817;-80
2024/03/15 01:38:50;;;;;;;90.30;41.50;;;;;;;0.16;84.22;97114.50;107485;1241;97084;-80
2024/03/15 01:41:16;;;;;;;85.50;41.10;;;;;;;0.16;84.25;97117.15;107571;1241;97472;-80
2024/03/15 01:43:48;;;;;;;86.30;37.10;;;;;;;0.15;84.25;97118.67;107484;1240;98904;-80
2024/03/15 01:46:14;;;;;;;55.40;29.00;;;;;;;0.13;84.29;97116.70;107466;1241;97119;-80
2024/03/15 01:48:41;;;;;;;86.20;40.30;;;;;;;0.10;84.26;97119.15;107484;1238;97027;-80
2024/03/15 01:51:07;;;;;;;77.60;40.60;;;;;;;0.09;84.17;97115.41;107477;1242;96677;-80
2024/03/15 01:53:35;;;;;;;93.00;41.40;;;;;;;0.06;84.34;97115.91;107506;1238;97043;-80
2024/03/15 01:56:02;;;;;;;99.50;39.80;;;;;;;0.06;84.38;97118.37;107490;1237;96600;-80
2024/03/15 01:58:28;;;;;;;93.00;41.00;;;;;;;0.05;84.39;97119.38;107306;1251;96844;-80
2024/03/15 02:00:56;;;;;;;99.70;40.20;;;;;;;0.05;84.58;97121.58;107313;1249;97475;-80
2024/03/15 02:03:23;;;;;;;96.00;43.20;;;;;;;0.07;84.69;97120.92;107340;1244;96584;-80
2024/03/15 02:05:50;;;;;;;94.40;45.30;;;;;;;0.05;84.68;97114.94;107319;1248;96645;-80
2024/03/15 02:08:19;;;;;;;100.40;47.90;;;;;;;0.05;84.74;97115.98;107410;1248;97483;-80
2024/03/15 02:10:46;;;;;;;91.90;43.20;;;;;;;0.05;84.73;97118.92;107468;1243;97122;-80
2024/03/15 02:13:15;;;;;;;90.70;42.20;;;;;;;0.06;84.80;97120.13;107463;1246;96803;-80
2024/03/15 02:15:42;;;;;;;87.70;40.10;;;;;;;0.06;84.89;97120.98;107525;1242;101363;-80
2024/03/15 02:18:09;;;;;;;87.70;37.80;;;;;;;0.06;84.92;97121.36;107291;1252;96565;-80
2024/03/15 02:20:35;;;;;;;70.10;36.00;;;;;;;0.06;85.02;97118.90;107296;1238;96783;-80
2024/03/15 02:23:03;;;;;;;95.10;40.90;;;;;;;0.05;84.98;97122.50;107440;1239;97645;-80
2024/03/15 02:25:30;;;;;;;88.40;43.70;;;;;;;0.01;84.94;97126.06;107329;1238;97830;-92
2024/03/15 02:27:56;;;;;;;93.50;44.90;;;;;;;-0.04;84.98;97126.25;107408;1241;96785;-92
2024/03/15 02:30:22;;;;;;;86.40;42.60;;;;;;;-0.03;85.07;97129.08;107323;1238;96581;-92
2024/03/15 02:32:48;;;;;;;108.50;46.80;;;;;;;-0.01;85.28;97128.74;107354;1246;96569;-91
2024/03/15 02:35:15;;;;;;;89.00;43.70;;;;;;;-0.02;85.26;97126.36;107336;1242;97413;-92
2024/03/15 02:37:41;;;;;;;88.00;43.00;;;;;;;-0.01;85.28;97128.80;107390;1238;96889;-92
2024/03/15 02:40:09;;;;;;;82.10;41.00;;;;;;;-0.02;85.22;97129.00;107232;1241;189150;-91
2024/03/15 02:42:36;;;;;;;79.10;39.10;;;;;;;-0.00;85.26;97130.14;107425;1241;97101;-91
2024/03/15 02:45:04;;;;;;;85.20;38.90;;;;;;;-0.03;85.22;97127.95;107340;1249;97800;-87
2024/03/15 02:47:31;;;;;;;89.90;40.40;;;;;;;-0.05;85.29;97127.04;107400;1242;96581;-80
2024/03/15 02:49:57;;;;;;;108.00;44.90;;;;;;;-0.05;85.30;97126.34;107450;1246;97859;-80
2024/03/15 02:52:24;;;;;;;92.50;45.50;;;;;;;-0.06;85.38;97125.36;107495;1239;96552;-80
2024/03/15 02:54:50;;;;;;;76.00;37.00;;;;;;;-0.06;85.37;97125.92;107575;1241;96508;-78
2024/03/15 02:57:16;;;;;;;58.20;33.60;;;;;;;-0.08;85.38;97125.35;107411;1238;101166;-78
2024/03/15 02:59:44;;;;;;;61.40;32.00;;;;;;;-0.09;85.30;97127.09;107503;1241;96555;-78
2024/03/15 03:02:10;;;;;;;61.50;31.60;;;;;;;-0.11;85.25;97123.75;107387;1248;97901;-78
2024/03/15 03:04:39;;;;;;;54.50;31.10;;;;;;;-0.12;85.20;97121.92;107493;1242;97803;-77
2024/03/15 03:07:06;;;;;;;59.00;29.30;;;;;;;-0.13;85.26;97123.09;107475;1241;96591;-77
2024/03/15 03:09:32;;;;;;;62.40;28.90;;;;;;;-0.13;85.29;97134.80;107468;1242;96580;-77
2024/03/15 03:11:58;;;;;;;61.40;30.10;;;;;;;-0.13;85.35;97132.48;107486;1241;97525;-77
2024/03/15 03:14:25;;;;;;;62.10;30.80;;;;;;;-0.14;85.26;97130.61;107508;1241;97394;-77
2024/03/15 03:16:51;;;;;;;68.00;31.20;;;;;;;-0.15;85.26;97129.30;107500;1248;97332;-88
2024/03/15 03:19:18;;;;;;;61.10;31.30;;;;;;;-0.16;85.30;97129.20;107386;1248;96597;-88
2024/03/15 03:21:45;;;;;;;64.80;30.50;;;;;;;-0.16;85.50;97132.71;107295;1243;96591;-86
2024/03/15 03:24:15;;;;;;;61.60;31.20;;;;;;;-0.16;85.53;97130.05;107376;1245;97686;-85
2024/03/15 03:26:41;;;;;;;66.50;31.30;;;;;;;-0.17;85.51;97128.05;107385;1248;101999;-86
2024/03/15 03:29:08;;;;;;;62.90;29.50;;;;;;;-0.19;85.54;97130.18;107374;1241;97700;-86
2024/03/15 03:31:34;;;;;;;59.40;29.00;;;;;;;-0.19;85.57;97133.42;107314;1251;97123;-85
2024/03/15 03:34:00;;;;;;;61.30;30.90;;;;;;;-0.22;85.51;97131.60;107435;1241;97807;-86
2024/03/15 03:36:27;;;;;;;56.30;29.10;;;;;;;-0.26;85.57;97134.80;107394;1241;102087;-85
2024/03/15 03:38:54;;;;;;;53.40;27.80;;;;;;;-0.29;85.61;97133.14;107424;1242;97476;-85
2024/03/15 03:41:20;;;;;;;58.20;28.40;;;;;;;-0.31;85.59;97132.14;107368;1252;97125;-87
2024/03/15 03:43:46;;;;;;;71.30;33.30;;;;;;;-0.33;85.60;97126.52;107466;1242;96632;-88
2024/03/15 03:46:15;;;;;;;69.30;31.60;;;;;;;-0.34;85.62;97128.86;107376;1241;101188;-88
2024/03/15 03:48:41;;;;;;;68.40;31.40;;;;;;;-0.34;85.74;97133.80;107416;1241;101406;-87
2024/03/15 03:51:08;;;;;;;73.10;33.00;;;;;;;-0.34;85.75;97134.73;107382;1251;97826;-88
2024/03/15 03:53:34;;;;;;;68.70;33.90;;;;;;;-0.35;85.83;97135.69;107392;1240;96540;-87
2024/03/15 03:56:01;;;;;;;71.00;35.10;;;;;;;-0.34;85.90;97140.70;107446;1242;97479;-87
2024/03/15 03:58:27;;;;;;;69.90;36.40;;;;;;;-0.34;85.90;97140.16;107374;1248;101259;-87
2024/03/15 04:00:53;;;;;;;71.20;36.80;;;;;;;-0.34;85.94;97142.52;107387;1241;96576;-91
2024/03/15 04:03:20;;;;;;;63.70;32.30;;;;;;;-0.38;85.82;97141.94;107374;1241;97810;-91
2024/03/15 04:05:47;;;;;;;59.30;31.00;;;;;;;-0.38;85.81;97143.23;107454;1241;96676;-91
2024/03/15 04:08:15;;;;;;;59.80;31.90;;;;;;;-0.38;85.80;97142.54;107374;1241;101503;-90
2024/03/15 04:10:42;;;;;;;62.90;32.10;;;;;;;-0.39;85.78;97142.59;107365;1249;99881;-91
2024/03/15 04:13:08;;;;;;;70.40;35.50;;;;;;;-0.39;85.82;97144.71;107317;1248;96587;-90
2024/03/15 04:15:35;;;;;;;78.70;37.80;;;;;;;-0.39;85.92;97141.00;107401;1239;97495;-80
2024/03/15 04:18:02;;;;;;;103.90;40.30;;;;;;;-0.38;86.00;97140.91;107437;1242;97830;-80
2024/03/15 04:20:29;;;;;;;81.20;38.30;;;;;;;-0.40;85.90;97139.66;107560;1241;97767;-87
2024/03/15 04:22:56;;;;;;;92.10;39.90;;;;;;;-0.41;85.85;97143.55;107472;1241;97803;-89
2024/03/15 04:25:23;;;;;;;67.20;33.50;;;;;;;-0.44;85.88;97142.33;107467;1241;96790;-88
2024/03/15 04:27:51;;;;;;;59.10;29.90;;;;;;;-0.44;85.91;97144.52;107382;1241;97458;-88
2024/03/15 04:30:21;;;;;;;53.60;28.40;;;;;;;-0.44;85.97;97145.17;107363;1243;97366;-88
2024/03/15 04:32:50;;;;;;;45.20;26.70;;;;;;;-0.43;85.97;97145.09;107269;1242;99923;-87
2024/03/15 04:35:17;;;;;;;41.90;23.70;;;;;;;-0.42;86.08;97143.11;107426;1240;97826;-88
2024/03/15 04:37:44;;;;;;;85.10;44.40;;;;;;;-0.42;86.02;97142.21;107484;1248;97215;-88
2024/03/15 04:40:13;;;;;;;73.90;36.30;;;;;;;-0.44;85.92;97140.46;107341;1242;96575;-88
2024/03/15 04:42:40;;;;;;;54.70;27.30;;;;;;;-0.46;85.93;97141.83;107346;1241;101264;-88
2024/03/15 04:45:09;;;;;;;49.80;26.80;;;;;;;-0.46;85.98;97139.77;107342;1242;96608;-89
2024/03/15 04:47:38;;;;;;;55.50;28.00;;;;;;;-0.48;85.99;97138.86;107351;1241;96812;-80
2024/03/15 04:50:06;;;;;;;56.90;29.20;;;;;;;-0.49;85.91;97148.77;107502;1240;97082;-80
2024/03/15 04:52:33;;;;;;;56.10;29.00;;;;;;;-0.51;85.93;97148.95;107482;1249;102307;-80
2024/03/15 04:55:00;;;;;;;64.90;29.10;;;;;;;-0.51;86.06;97147.33;107499;1238;96933;-80
2024/03/15 04:57:27;;;;;;;79.00;33.20;;;;;;;-0.51;86.13;97148.36;107478;1252;96571;-80
2024/03/15 04:59:54;;;;;;;94.30;38.60;;;;;;;-0.51;86.08;97145.91;107531;1242;97508;-79
2024/03/15 05:02:21;;;;;;;88.70;38.10;;;;;;;-0.51;86.05;97144.88;107472;1239;96597;-91
2024/03/15 05:04:49;;;;;;;77.90;38.20;;;;;;;-0.52;86.07;97146.59;107432;1240;96563;-91
2024/03/15 05:07:15;;;;;;;93.20;39.40;;;;;;;-0.55;86.11;97144.14;107383;1244;96815;-90
2024/03/15 05:09:42;;;;;;;100.00;37.50;;;;;;;-0.56;86.10;97145.84;107406;1239;97425;-91
2024/03/15 05:12:08;;;;;;;92.40;38.60;;;;;;;-0.56;86.11;97141.07;107364;1242;98196;-90
2024/03/15 05:14:35;;;;;;;81.40;34.90;;;;;;;-0.57;86.03;97145.40;107371;1241;96635;-90
2024/03/15 05:17:02;;;;;;;83.10;32.80;;;;;;;-0.58;86.05;97145.70;107344;1249;97493;-91
2024/03/15 05:19:29;;;;;;;79.90;33.80;;;;;;;-0.61;86.04;97147.20;107401;1248;97810;-91
2024/03/15 05:21:55;;;;;;;73.70;32.90;;;;;;;-0.61;86.15;97149.23;107351;1242;97112;-91
2024/03/15 05:24:22;;;;;;;71.30;32.40;;;;;;;-0.63;86.07;97150.95;107392;1239;96581;-90
2024/03/15 05:26:48;;;;;;;60.20;29.90;;;;;;;-0.65;85.98;97154.19;107384;1252;97705;-91
2024/03/15 05:29:14;;;;;;;52.90;25.70;;;;;;;-0.67;86.02;97152.38;107424;1252;96667;-91
2024/03/15 05:31:41;;;;;;;43.70;25.70;;;;;;;-0.65;86.10;97154.33;107412;1252;97825;-79
2024/03/15 05:34:07;;;;;;;40.10;23.80;;;;;;;-0.64;86.15;97151.08;107508;1241;96588;-79
2024/03/15 05:36:35;;;;;;;42.30;25.10;;;;;;;-0.64;86.19;97147.71;107495;1247;96824;-79
2024/03/15 05:39:01;;;;;;;46.50;25.50;;;;;;;-0.61;86.20;97150.95;107425;1242;96654;-91
2024/03/15 05:41:27;;;;;;;44.60;25.30;;;;;;;-0.60;86.18;97150.63;107428;1242;96632;-91
2024/03/15 05:43:54;;;;;;;49.10;29.10;;;;;;;-0.60;86.09;97148.67;107363;1248;100083;-91
2024/03/15 05:46:20;;;;;;;67.40;34.70;;;;;;;-0.61;85.99;97147.08;107344;1242;97365;-91
2024/03/15 05:48:47;;;;;;;70.50;35.70;;;;;;;-0.63;85.95;97140.59;107325;1242;97830;-91
2024/03/15 05:51:13;;;;;;;80.10;40.70;;;;;;;-0.63;85.90;97138.11;107418;1242;97544;-91
2024/03/15 05:53:40;;;;;;;114.20;57.70;;;;;;;-0.64;85.94;97139.25;107341;1246;101143;-90
2024/03/15 05:56:06;;;;;;;108.80;57.70;;;;;;;-0.65;85.99;97135.27;107369;1244;96718;-87
2024/03/15 05:58:33;;;;;;;107.80;53.80;;;;;;;-0.66;85.93;97136.58;107351;1247;96612;-80
2024/03/15 06:00:59;;;;;;;148.30;72.40;;;;;;;-0.66;85.97;97135.02;107509;1241;97148;-79
2024/03/15 07:40:24;;;;;;;45.30;24.50;;;;;;;3.46;86.18;97129.45;107601;1243;100361;-82
2024/03/15 07:42:53;;;;;;;47.30;24.80;;;;;;;3.79;86.00;97131.28;107494;1242;96645;-82
2024/03/15 07:45:19;;;;;;;41.10;23.50;;;;;;;4.10;85.64;97126.77;107494;1242;97676;-79
2024/03/15 07:47:47;;;;;;;43.70;25.10;;;;;;;4.40;85.34;97125.66;107350;1236;97836;-81
2024/03/15 07:50:13;;;;;;;43.60;24.70;;;;;;;4.72;84.94;97122.32;107390;1242;96660;-86
2024/03/15 07:52:40;;;;;;;39.70;23.70;;;;;;;5.03;84.51;97120.98;107327;1252;97868;-78
2024/03/15 07:55:07;;;;;;;37.80;22.20;;;;;;;5.33;84.13;97121.63;107614;1241;97493;-78
2024/03/15 07:57:34;;;;;;;35.80;21.80;;;;;;;5.64;83.57;97120.37;107600;1241;102121;-79
2024/03/15 08:00:00;;;;;;;34.10;22.10;;;;;;;5.98;83.53;97126.95;107551;1249;97517;-78
2024/03/15 08:02:27;;;;;;;38.40;22.20;;;;;;;6.35;82.95;97120.94;107547;1241;97475;-91
2024/03/15 08:04:56;;;;;;;34.40;21.90;;;;;;;6.71;82.50;97120.14;107419;1243;96811;-92
2024/03/15 08:07:22;;;;;;;37.80;22.60;;;;;;;7.02;81.42;97113.32;107455;1252;102192;-92
2024/03/15 08:09:48;;;;;;;34.40;21.90;;;;;;;7.33;80.82;97117.55;107337;1243;96585;-91
2024/03/15 08:12:15;;;;;;;32.20;21.70;;;;;;;7.68;80.65;97109.89;107354;1245;96823;-92
2024/03/15 08:14:42;;;;;;;37.50;22.40;;;;;;;8.09;80.50;97110.36;107480;1241;97116;-92
2024/03/15 08:17:09;;;;;;;35.70;23.20;;;;;;;8.46;79.66;97107.44;107548;1247;101219;-86
2024/03/15 08:19:36;;;;;;;38.50;22.80;;;;;;;8.70;78.77;97107.95;107437;1241;96573;-86
2024/03/15 08:22:02;;;;;;;32.40;22.30;;;;;;;8.92;78.35;97107.67;107413;1245;96659;-87
2024/03/15 08:24:28;;;;;;;35.70;22.70;;;;;;;9.23;78.07;97103.77;107505;1250;96568;-87
2024/03/15 08:26:55;;;;;;;31.20;21.30;;;;;;;9.51;77.87;97100.89;107456;1240;102305;-87
2024/03/15 08:29:21;;;;;;;37.20;22.60;;;;;;;9.85;77.57;97099.23;107436;1246;97390;-82
2024/03/15 08:31:48;;;;;;;34.30;22.80;;;;;;;10.13;76.40;97092.66;107525;1252;96582;-83
2024/03/15 08:34:15;;;;;;;37.10;23.80;;;;;;;10.31;75.79;97086.60;107594;1243;96570;-82
2024/03/15 08:36:41;;;;;;;47.90;28.40;;;;;;;10.47;75.22;97088.04;107540;1240;100663;-82
2024/03/15 08:39:11;;;;;;;40.50;25.90;;;;;;;10.58;74.79;97090.20;107573;1245;97481;-83
2024/03/15 08:41:38;;;;;;;42.80;27.50;;;;;;;10.61;73.39;97086.85;107539;1243;98828;-83
2024/03/15 08:44:05;;;;;;;51.30;31.30;;;;;;;10.65;73.41;97084.46;107579;1242;96734;-83
2024/03/15 08:46:32;;;;;;;41.70;28.20;;;;;;;10.74;73.08;97083.72;107482;1241;97191;-79
2024/03/15 08:48:58;;;;;;;46.20;28.90;;;;;;;10.71;72.80;97084.29;107563;1242;96567;-92
2024/03/15 08:51:24;;;;;;;38.10;26.30;;;;;;;10.71;72.63;97082.59;107437;1244;97141;-92
2024/03/15 08:53:52;;;;;;;44.00;26.30;;;;;;;10.76;72.76;97080.84;107439;1241;97789;-91
2024/03/15 08:56:19;;;;;;;37.10;23.90;;;;;;;10.87;71.72;97076.70;107438;1249;97426;-83
2024/03/15 08:58:46;;;;;;;37.00;24.60;;;;;;;10.91;71.21;97073.02;107580;1242;96571;-88
2024/03/15 09:01:13;;;;;;;37.40;24.40;;;;;;;11.03;71.20;97074.12;107567;1242;97689;-88
2024/03/15 09:03:39;;;;;;;32.90;22.10;;;;;;;11.24;71.10;97071.02;107512;1251;97202;-88
2024/03/15 09:06:06;;;;;;;33.50;22.50;;;;;;;11.43;70.87;97066.61;107687;1238;96531;-89
2024/03/15 09:08:34;;;;;;;30.50;21.80;;;;;;;11.57;69.89;97063.50;107486;1249;101695;-84
2024/03/15 09:11:04;;;;;;;30.40;21.10;;;;;;;11.79;70.60;97060.87;107499;1241;99901;-86
2024/03/15 09:13:30;;;;;;;27.80;18.20;;;;;;;12.19;70.27;97058.20;107452;1243;99427;-85
2024/03/15 09:15:57;;;;;;;27.70;18.20;;;;;;;12.52;68.70;97055.98;107482;1249;97765;-86
2024/03/15 09:18:23;;;;;;;25.00;16.00;;;;;;;12.72;67.76;97049.21;107468;1242;96833;-85
2024/03/15 09:20:54;;;;;;;22.20;16.40;;;;;;;12.94;66.17;97050.63;107536;1246;97385;-85
2024/03/15 09:23:21;;;;;;;24.20;17.00;;;;;;;13.17;66.05;97051.71;107494;1241;100316;-86
2024/03/15 09:25:48;;;;;;;22.90;16.60;;;;;;;13.48;65.54;97048.63;107459;1246;97911;-86
2024/03/15 09:28:14;;;;;;;21.60;16.60;;;;;;;13.68;65.16;97047.64;107347;1247;96807;-85
2024/03/15 09:30:47;;;;;;;22.80;16.00;;;;;;;14.03;65.52;97045.73;107438;1241;97816;-86
2024/03/15 09:33:13;;;;;;;20.80;14.90;;;;;;;14.40;64.42;97039.13;107445;1241;101473;-85
2024/03/15 09:35:40;;;;;;;21.10;15.10;;;;;;;14.70;63.61;97038.30;107476;1250;96561;-85
2024/03/15 09:38:07;;;;;;;22.80;15.50;;;;;;;15.05;63.57;97034.18;107484;1250;96811;-86
2024/03/15 09:40:34;;;;;;;20.50;13.90;;;;;;;15.46;62.66;97033.82;107494;1238;97711;-87
2024/03/15 09:43:01;;;;;;;23.40;14.90;;;;;;;15.74;61.27;97030.45;107456;1252;96677;-87
2024/03/15 09:45:28;;;;;;;19.80;15.60;;;;;;;15.97;60.90;97031.71;107545;1248;97696;-86
2024/03/15 09:47:54;;;;;;;23.00;14.90;;;;;;;16.13;58.71;97032.94;107605;1250;96632;-83
2024/03/15 09:50:25;;;;;;;20.50;15.00;;;;;;;16.20;57.41;97028.37;107621;1250;96553;-82
2024/03/15 09:52:52;;;;;;;21.00;15.30;;;;;;;16.25;55.84;97028.64;107611;1240;102109;-82
2024/03/15 09:55:19;;;;;;;18.30;15.10;;;;;;;16.28;54.55;97025.69;107675;1240;96604;-83
2024/03/15 09:57:48;;;;;;;21.40;14.80;;;;;;;16.31;55.00;97025.49;107608;1243;96607;-82
2024/03/15 10:00:17;;;;;;;21.60;14.80;;;;;;;16.45;54.06;97024.55;107562;1238;96589;-82
2024/03/15 10:02:44;;;;;;;18.10;13.90;;;;;;;16.64;54.35;97022.17;107654;1242;98393;-82
2024/03/15 10:05:20;;;;;;;18.20;13.80;;;;;;;16.79;53.43;97017.35;107618;1240;99042;-88
2024/03/15 10:07:48;;;;;;;19.50;14.90;;;;;;;16.89;53.38;97018.80;107639;1242;101243;-89
2024/03/15 10:10:14;;;;;;;19.30;14.60;;;;;;;17.04;53.22;97013.95;107612;1241;97994;-90
2024/03/15 10:12:44;;;;;;;15.10;13.00;;;;;;;17.20;52.25;97014.01;107599;1245;99038;-89
2024/03/15 10:15:15;;;;;;;19.30;13.60;;;;;;;17.37;52.35;97012.48;107695;1250;99144;-88
2024/03/15 10:17:44;;;;;;;20.60;14.30;;;;;;;17.51;51.92;97010.25;107625;1242;103377;-89
2024/03/15 10:20:22;;;;;;;16.10;13.40;;;;;;;17.64;51.29;97008.43;107689;1240;101343;-89
2024/03/15 10:22:52;;;;;;;17.90;13.90;;;;;;;17.74;51.38;97004.89;107624;1249;98928;-90
2024/03/15 10:25:21;;;;;;;17.00;14.00;;;;;;;17.87;49.33;97002.74;107493;1243;97986;-86
2024/03/15 10:27:49;;;;;;;19.10;13.20;;;;;;;17.90;49.39;96998.66;107684;1241;98366;-86
2024/03/15 10:30:22;;;;;;;17.10;13.20;;;;;;;17.96;49.13;96996.67;107679;1238;103121;-87
2024/03/15 10:32:50;;;;;;;18.10;13.00;;;;;;;17.93;48.49;96997.27;107537;1249;100016;-87
2024/03/15 10:35:19;;;;;;;17.50;13.10;;;;;;;17.89;48.76;96993.76;107664;1252;99953;-87
2024/03/15 10:37:47;;;;;;;16.00;12.90;;;;;;;18.02;48.51;96990.90;107685;1238;97933;-86
2024/03/15 10:40:16;;;;;;;18.10;12.70;;;;;;;18.15;48.46;96988.69;107696;1241;98423;-87
2024/03/15 10:42:44;;;;;;;15.80;12.80;;;;;;;18.30;47.90;96985.51;107461;1243;103151;-86
2024/03/15 10:45:15;;;;;;;15.60;12.30;;;;;;;18.39;47.46;96982.40;107394;1250;101519;-87
2024/03/15 10:47:43;;;;;;;15.70;12.60;;;;;;;18.50;47.10;96984.48;107481;1243;99972;-83
2024/03/15 10:50:17;;;;;;;15.30;12.20;;;;;;;18.57;46.81;96983.09;107664;1248;97954;-84
2024/03/15 10:52:45;;;;;;;15.90;12.30;;;;;;;18.62;46.72;96975.84;110886;1236;95863;-84
2024/03/15 10:55:28;;;;;;;17.20;12.40;;;;;;;18.69;45.94;96974.54;110163;1240;102612;-83
2024/03/15 10:57:55;;;;;;;;;;;;;;;18.72;44.53;96969.72;107881;1241;101678;-83
2024/03/15 11:00:25;;;;;;;15.10;12.50;;;;;;;18.71;44.37;96969.45;108053;1244;98475;-83
2024/03/15 11:02:56;;;;;;;18.10;12.60;;;;;;;18.85;45.51;96966.37;107759;1246;98576;-85
2024/03/15 11:05:27;;;;;;;15.40;11.80;;;;;;;19.11;45.35;96964.60;107764;1241;98450;-87
2024/03/15 11:08:08;;;;;;;15.70;12.00;;;;;;;19.32;45.50;96957.81;108106;1243;103638;-87
2024/03/15 11:10:36;;;;;;;15.30;11.40;;;;;;;19.53;45.10;96955.48;110981;1238;101260;-88
2024/03/15 11:13:03;;;;;;;16.20;12.50;;;;;;;19.67;44.37;96954.98;109426;1244;99473;-86
2024/03/15 11:15:33;;;;;;;16.30;11.60;;;;;;;19.86;45.35;96956.71;108032;1240;97898;-90
2024/03/15 11:18:06;;;;;;;13.60;10.80;;;;;;;20.15;45.19;96955.50;107822;1241;98348;-90
2024/03/15 11:20:45;;;;;;;13.30;11.00;;;;;;;20.37;43.33;96957.91;107730;1241;103459;-90
2024/03/15 11:23:19;;;;;;;14.20;10.60;;;;;;;20.29;43.12;96957.13;107775;1238;99977;-82
2024/03/15 11:26:08;;;;;;;15.70;11.20;;;;;;;20.31;43.05;96958.42;107662;1241;99853;-83
2024/03/15 11:28:37;;;;;;;12.10;10.10;;;;;;;20.38;42.79;96960.77;107655;1241;97984;-83
2024/03/15 11:31:15;;;;;;;14.80;9.90;;;;;;;20.53;43.09;96955.52;107691;1239;99177;-83
2024/03/15 11:33:42;;;;;;;16.00;10.50;;;;;;;20.55;42.85;96953.13;107734;1242;103676;-84
2024/03/15 11:36:10;;;;;;;14.10;11.20;;;;;;;20.44;42.24;96954.73;107682;1240;97908;-83
2024/03/15 11:38:45;;;;;;;13.00;10.90;;;;;;;20.32;42.45;96954.52;107611;1241;98062;-83
2024/03/15 11:41:12;;;;;;;13.40;10.20;;;;;;;20.38;42.82;96953.46;107667;1240;98629;-87
2024/03/15 11:43:38;;;;;;;13.30;10.20;;;;;;;20.57;42.37;96951.30;107621;1239;99164;-86
2024/03/15 11:46:05;;;;;;;12.10;10.20;;;;;;;20.39;40.63;96949.77;107686;1246;97949;-87
2024/03/15 11:48:33;;;;;;;14.10;10.30;;;;;;;20.21;41.77;96946.65;107701;1241;97947;-86
2024/03/15 11:51:01;;;;;;;14.80;9.90;;;;;;;20.35;41.92;96943.12;107668;1250;99170;-85
2024/03/15 11:53:28;;;;;;;14.50;10.70;;;;;;;20.35;40.97;96941.25;107747;1250;98001;-86
2024/03/15 11:55:54;;;;;;;14.10;10.90;;;;;;;20.05;41.66;96939.89;107491;1251;98924;-86
2024/03/15 11:58:21;;;;;;;14.50;10.80;;;;;;;19.97;41.85;96942.73;107730;1238;99152;-86
2024/03/15 12:00:52;;;;;;;12.80;11.20;;;;;;;19.96;41.87;96937.21;107499;1240;99915;-81
2024/03/15 12:03:22;;;;;;;12.90;10.70;;;;;;;19.96;41.76;96934.64;107578;1240;97982;-81
2024/03/15 12:05:50;;;;;;;14.20;10.60;;;;;;;19.94;41.20;96934.38;107639;1241;98441;-81
2024/03/15 12:08:22;;;;;;;13.60;10.40;;;;;;;19.92;42.04;96932.85;107901;1238;102559;-81
2024/03/15 12:10:49;;;;;;;15.00;11.50;;;;;;;20.16;41.65;96929.42;107808;1250;101290;-81
2024/03/15 12:13:20;;;;;;;13.90;11.30;;;;;;;20.22;41.38;96926.42;107579;1240;99812;-81
2024/03/15 12:15:48;;;;;;;12.70;9.40;;;;;;;20.32;41.69;96925.48;107484;1240;97888;-80
2024/03/15 12:18:19;;;;;;;13.90;10.60;;;;;;;20.53;41.82;96925.84;107634;1250;97921;-81
2024/03/15 12:20:47;;;;;;;12.00;10.50;;;;;;;20.78;41.14;96922.66;107646;1241;102635;-81
2024/03/15 12:23:16;;;;;;;14.30;11.20;;;;;;;20.84;41.43;96922.00;107797;1241;100202;-80
2024/03/15 12:25:42;;;;;;;13.50;10.60;;;;;;;21.01;40.49;96914.34;107707;1241;99209;-81
2024/03/15 12:28:14;;;;;;;12.80;11.00;;;;;;;21.01;40.63;96914.98;107702;1243;98061;-81
2024/03/15 12:30:53;;;;;;;14.30;10.50;;;;;;;21.18;40.56;96911.10;107729;1248;99196;-80
2024/03/15 12:33:19;;;;;;;13.50;10.60;;;;;;;21.43;39.94;96911.27;107653;1239;103482;-80
2024/03/15 12:35:48;;;;;;;12.40;11.00;;;;;;;21.45;39.32;96910.20;107681;1241;99282;-81
2024/03/15 12:38:18;;;;;;;13.40;10.80;;;;;;;21.31;38.83;96906.58;107562;1242;99879;-81
2024/03/15 12:40:45;;;;;;;14.50;10.30;;;;;;;21.05;38.80;96903.16;108111;1241;98006;-89
2024/03/15 12:43:11;;;;;;;13.70;10.60;;;;;;;20.99;39.71;96898.86;108121;1238;97906;-89
2024/03/15 12:45:40;;;;;;;11.50;9.40;;;;;;;21.13;39.91;96897.52;108119;1240;97898;-87
2024/03/15 12:48:08;;;;;;;10.70;9.10;;;;;;;21.30;39.45;96898.90;107906;1240;98595;-87